01:02 MTB Moetz - Hatting - Telfs
Ort Moetz Datum 08.08.2011 07:05:21
Kategorie MTB
Distanz 28,78 Kilometer Steigung 0,0 Meter Gefälle 0,0 Meter
Gesamt Zeit 01:02:28 Aktiv 01:02:28 Pause 00:00:00
Durchs. Tempo 27,6 km/h Tempo max. 31,9 km/h Tempo min. 17,5 km/h
Kalorien 0 Durchs. HF 131 BPM HF max. 147 BPM
Wetter 15 °C LightRain
Ausrüstung Avid - Juicy BB7 organic
Schwalbe - Nobby Nic vorne
Schwalbe - Racing Ralph hinten
Shimano - HG-93 XT
Specialized - BG S-Works MTB
Specialized - Stumpjumper Comp
Notiz Moetz - Hatting - Telfs ... tw. Regen, tiefe Lacken, ganz locker ... garmin connect
Splits
Distanz (km) Gesamt Zeit Split Zeit Split Tempo Split Tempo Höhenprofil (m)
1,00 00:02:25 00:02:25 00:02:25 24,8 -10,00
2,00 00:04:36 00:02:11 00:02:11 27,5 -2,08
3,00 00:06:45 00:02:09 00:02:09 27,9 -0,73
4,00 00:09:05 00:02:20 00:02:20 25,7 -2,19
5,00 00:11:21 00:02:16 00:02:16 26,5 0,52
6,00 00:13:28 00:02:07 00:02:07 28,3 -0,44
7,00 00:15:49 00:02:21 00:02:21 25,5 -1,49
8,00 00:17:59 00:02:10 00:02:10 27,7 -6,59
9,00 00:20:09 00:02:10 00:02:10 27,7 -3,00
10,00 00:22:09 00:02:00 00:02:00 30,0 -3,24
11,00 00:24:13 00:02:04 00:02:04 29,0 0,24
12,00 00:26:17 00:02:04 00:02:04 29,0 -6,39
13,00 00:28:28 00:02:11 00:02:11 27,5 2,39
14,00 00:30:32 00:02:04 00:02:04 29,0 -5,99
15,00 00:32:38 00:02:06 00:02:06 28,6 -1,00
16,00 00:34:53 00:02:15 00:02:15 26,7 9,11
17,00 00:36:57 00:02:04 00:02:04 29,0 -6,80
18,00 00:38:58 00:02:01 00:02:01 29,8 -5,24
19,00 00:41:11 00:02:13 00:02:13 27,1 -0,07
20,00 00:43:48 00:02:37 00:02:37 22,9 -3,00
21,00 00:45:51 00:02:03 00:02:03 29,3 0,00
22,00 00:47:58 00:02:07 00:02:07 28,3 1,01
23,00 00:50:05 00:02:07 00:02:07 28,3 1,99
24,00 00:52:13 00:02:08 00:02:08 28,1 2,92
25,00 00:54:18 00:02:05 00:02:05 28,8 0,08
26,00 00:56:24 00:02:06 00:02:06 28,6 1,77
27,00 00:58:31 00:02:07 00:02:07 28,3 2,03
28,00 01:00:39 00:02:08 00:02:08 28,1 2,67